Sumise Maru No.20 — JG5478 — position and weather

sailwx.info

Track history (hours):
 
Tides and Currents Weather Stations Pressure Air Temp Water Temp Dewpoint Dewpoint Depression Visibility Wind Speed Wind Dir Waves Ship Positions

Sumise Maru No.20

Last reported at 2018-May-21 10:36 UTC. Time now 2018-May-22 01:48 UTC.
Position N 34°57' E 139°24'.

Length 117 m; draft 5.8 m.

Type: Cargo ship. MMSI: 431100268.

Date/timePositionNaut miles runAvg speedWind from/ knotsBaromVisibWave heightAir tempDewpointWater temp
2018-May-21 10:36N 34°57' E 139°24'3 9.6
2018-May-21 10:16N 34°59' E 139°28'3 9.6
2018-May-21 09:59N 35°01' E 139°31'5 9.5
2018-May-21 09:30N 35°03' E 139°35'611.3
2018-May-21 09:00N 35°06' E 139°41'611.8
2018-May-21 08:30N 35°11' E 139°45'510.6
2018-May-21 08:00N 35°16' E 139°45'510.7
2018-May-21 07:30N 35°21' E 139°42'4 8.7
2018-May-21 07:00N 35°25' E 139°42'0 0.9
2018-May-21 06:30N 35°26' E 139°41'0 0.0
2018-May-21 06:00N 35°26' E 139°41'0 0.0
2018-May-21 05:30N 35°26' E 139°41'0 0.0
2018-May-21 05:00N 35°26' E 139°41'0 0.0
2018-May-21 04:27N 35°26' E 139°41'0 0.0
2018-May-21 04:00N 35°26' E 139°41'0 0.0
2018-May-21 03:30N 35°26' E 139°41'0 0.0
2018-May-21 03:00N 35°26' E 139°41'0 0.0
2018-May-21 02:27N 35°26' E 139°41'0 0.0
2018-May-21 02:00N 35°26' E 139°41'0 0.0
2018-May-21 01:30N 35°26' E 139°41'0 0.0
2018-May-21 01:00N 35°26' E 139°41'0 0.0
2018-May-21 00:30N 35°26' E 139°41'0 0.0
2018-May-21 00:00N 35°26' E 139°41'0 0.0
2018-May-20 23:27N 35°26' E 139°41'0 0.0
2018-May-20 23:00N 35°26' E 139°41'0 0.0
2018-May-20 22:30N 35°26' E 139°41'1 1.6
2018-May-20 22:00N 35°25' E 139°42'3 6.7
2018-May-20 21:31N 35°22' E 139°44'0 0.1
2018-May-20 20:56N 35°22' E 139°44'0 0.0
2018-May-20 20:29N 35°22' E 139°44'0 0.0
2018-May-20 19:56N 35°22' E 139°44'0 0.1
2018-May-20 19:29N 35°22' E 139°44'0 0.8
2018-May-20 19:00N 35°22' E 139°43'4 9.0
2018-May-20 18:30N 35°18' E 139°45'510.4
2018-May-20 18:00N 35°13' E 139°47'611.3
2018-May-20 17:30N 35°07' E 139°46'611.3
2018-May-20 17:00N 35°02' E 139°42'612.3
2018-May-20 16:30N 34°59' E 139°36'712.5
2018-May-20 15:59N 34°55' E 139°29'232 9.2
2018-May-19 14:55N 33°53' E 134°59'511.1
2018-May-19 14:30N 33°57' E 134°59'611.2
2018-May-19 14:00N 34°03' E 134°58'510.9
2018-May-19 13:30N 34°08' E 134°59'611.6
2018-May-19 13:00N 34°13' E 135°04'3 6.7
2018-May-19 12:30N 34°14' E 135°08'0 0.2
2018-May-19 12:00N 34°14' E 135°08'0 0.0
2018-May-19 11:30N 34°14' E 135°08'0 0.0
2018-May-19 11:00N 34°14' E 135°08'0 0.0
2018-May-19 10:30N 34°14' E 135°08'0 0.0
2018-May-19 10:00N 34°14' E 135°08'0 0.0
2018-May-19 09:30N 34°14' E 135°08'0 0.0
2018-May-19 09:00N 34°14' E 135°08'0 0.0
2018-May-19 08:30N 34°14' E 135°08'0 0.0
2018-May-19 08:00N 34°14' E 135°08'0 0.0
2018-May-19 07:30N 34°14' E 135°08'0 0.0
2018-May-19 07:00N 34°14' E 135°08'0 0.0
2018-May-19 06:30N 34°14' E 135°08'0 0.0
2018-May-19 06:00N 34°14' E 135°08'0 0.0
2018-May-19 05:30N 34°14' E 135°08'0 0.0
2018-May-19 05:00N 34°14' E 135°08'0 0.0
2018-May-19 04:30N 34°14' E 135°08'1 1.1
2018-May-19 04:00N 34°14' E 135°07'4 8.2
2018-May-19 03:30N 34°14' E 135°02'4 8.7
2018-May-19 03:00N 34°17' E 134°58'611.2
2018-May-19 02:30N 34°23' E 134°59'611.5
2018-May-19 02:00N 34°29' E 135°01'611.1
2018-May-19 01:30N 34°34' E 135°02'4 7.4
2018-May-19 00:58N 34°37' E 134°59'5 9.7
2018-May-19 00:30N 34°37' E 134°54'510.4
2018-May-19 00:00N 34°38' E 134°48'611.1
2018-May-18 23:30N 34°40' E 134°41'611.5
2018-May-18 22:59N 34°42' E 134°35'611.9
2018-May-18 22:30N 34°42' E 134°28'3 0.4
2018-May-18 14:33N 34°43' E 134°31'312.2
2018-May-18 14:18N 34°43' E 134°35'511.5
2018-May-18 13:52N 34°41' E 134°41'512.5
2018-May-18 13:27N 34°39' E 134°46'613.9
2018-May-18 13:00N 34°37' E 134°54'815.7
2018-May-18 12:30N 34°37' E 135°03'612.6
2018-May-18 12:00N 34°30' E 135°04'714.6
2018-May-18 11:30N 34°23' E 135°02'815.2
2018-May-18 11:00N 34°16' E 134°59'713.1
2018-May-18 10:30N 34°09' E 134°60'714.1
2018-May-18 10:01N 34°02' E 135°00'714.1
2018-May-18 09:30N 33°55' E 135°01'1013.1
2018-May-18 08:44N 33°47' E 135°07'22610.1
2018-May-17 10:18N 34°58' E 139°26'3 7.9
2018-May-17 09:56N 34°59' E 139°29'4 8.6
2018-May-17 09:30N 35°01' E 139°33'510.2
2018-May-17 08:59N 35°05' E 139°38'511.3
2018-May-17 08:30N 35°08' E 139°43'510.9
2018-May-17 08:00N 35°13' E 139°46'510.3
2018-May-17 07:30N 35°18' E 139°44'510.5
2018-May-17 07:00N 35°23' E 139°42'611.3
2018-May-17 06:30N 35°27' E 139°47'510.8
2018-May-17 06:00N 35°31' E 139°51'510.8
2018-May-17 05:30N 35°35' E 139°47'3 0.5
2018-May-16 23:16N 35°38' E 139°46'0 0.0
2018-May-16 22:58N 35°38' E 139°46'0 0.0
2018-May-16 22:28N 35°38' E 139°46'0 0.0
2018-May-16 21:52N 35°38' E 139°46'0 0.0
2018-May-16 21:28N 35°38' E 139°46'0 0.0
2018-May-16 20:58N 35°38' E 139°46'0 0.0
2018-May-16 20:28N 35°38' E 139°46'0 0.0
2018-May-16 19:58N 35°38' E 139°46'0 0.0
2018-May-16 19:28N 35°38' E 139°46'0 0.0
2018-May-16 18:46N 35°38' E 139°46'0 0.0
2018-May-16 18:22N 35°38' E 139°46'0 0.0
2018-May-16 17:58N 35°38' E 139°46'0 0.0
2018-May-16 17:28N 35°38' E 139°46'0 0.0
2018-May-16 16:52N 35°38' E 139°46'0 0.0
2018-May-16 16:28N 35°38' E 139°46'0 0.0
2018-May-16 15:58N 35°38' E 139°46'0 0.0
2018-May-16 15:22N 35°38' E 139°46'0 0.0
2018-May-16 14:58N 35°38' E 139°46'0 0.0
2018-May-16 14:04N 35°38' E 139°46'0 0.0
2018-May-16 13:58N 35°38' E 139°46'0 0.0
2018-May-16 13:28N 35°38' E 139°46'0 0.0
2018-May-16 12:58N 35°38' E 139°46'0 0.0
2018-May-16 12:22N 35°38' E 139°46'0 0.0
2018-May-16 11:58N 35°38' E 139°46'0 0.0
2018-May-16 11:28N 35°38' E 139°46'0 0.0
2018-May-16 10:40N 35°38' E 139°46'0 0.0
2018-May-16 10:10N 35°38' E 139°46'0 0.0
2018-May-16 09:58N 35°38' E 139°46'0 0.0
2018-May-16 09:21N 35°38' E 139°46'0 0.1
2018-May-16 08:40N 35°38' E 139°46'1 3.3
2018-May-16 08:16N 35°37' E 139°46'3 9.8
2018-May-16 08:00N 35°35' E 139°48'5 9.1
2018-May-16 07:28N 35°34' E 139°54'5 8.7
2018-May-16 06:53N 35°36' E 139°59'3 8.3
2018-May-16 06:28N 35°40' E 139°59'0 0.1
2018-May-15 22:04N 35°40' E 139°60'0 2.6
2018-May-15 22:00N 35°40' E 139°60'13 9.6
2018-May-15 20:41N 35°29' E 139°52'211.5
2018-May-15 20:30N 35°27' E 139°50'611.2
2018-May-15 20:00N 35°23' E 139°46'510.7
2018-May-15 19:30N 35°18' E 139°45'611.3
2018-May-15 19:00N 35°12' E 139°47'612.4
2018-May-15 18:30N 35°06' E 139°46'612.0
2018-May-15 18:00N 35°01' E 139°42'612.0
2018-May-15 17:30N 34°57' E 139°37'2 3.7
2018-May-15 17:00N 34°58' E 139°39'4 8.8
2018-May-15 16:30N 34°57' E 139°33'714.1
2018-May-15 15:59N 34°53' E 139°26'714.8
2018-May-15 15:30N 34°49' E 139°19'714.1
2018-May-15 14:59N 34°44' E 139°13'813.5
2018-May-15 14:25N 34°38' E 139°06'613.7
2018-May-15 13:58N 34°34' E 139°01'613.2
2018-May-15 13:30N 34°30' E 138°55'612.9
2018-May-15 13:00N 34°29' E 138°47'612.1
2018-May-15 12:30N 34°28' E 138°40'612.2
2018-May-15 12:00N 34°26' E 138°33'612.4
2018-May-15 11:30N 34°25' E 138°25'811.9
2018-May-15 10:50N 34°23' E 138°16'611.5
2018-May-15 10:21N 34°21' E 138°10'157 9.7
2018-May-14 18:05N 33°47' E 135°05'211.8
2018-May-14 17:55N 33°48' E 135°03'511.8
2018-May-14 17:30N 33°52' E 134°59'611.7
2018-May-14 17:01N 33°58' E 134°60'611.9
2018-May-14 16:31N 34°04' E 135°01'611.7
2018-May-14 16:00N 34°09' E 135°03'611.1
2018-May-14 15:30N 34°15' E 135°05'2 4.3
2018-May-14 15:00N 34°14' E 135°08'0 0.0
2018-May-14 14:28N 34°14' E 135°08'0 0.0
2018-May-14 13:58N 34°14' E 135°08'0 0.0
2018-May-14 13:28N 34°14' E 135°08'0 0.0
2018-May-14 12:58N 34°14' E 135°08'0 0.0
2018-May-14 12:30N 34°14' E 135°08'0 0.0
2018-May-14 11:55N 34°14' E 135°08'0 0.0
2018-May-14 11:31N 34°14' E 135°08'0 0.5
2018-May-14 11:01N 34°14' E 135°08'3 5.9
2018-May-14 10:30N 34°13' E 135°04'612.1
2018-May-14 10:01N 34°07' E 135°02'612.1
2018-May-14 09:31N 34°01' E 135°01'611.5
2018-May-14 09:00N 33°56' E 134°57'811.3
2018-May-14 08:16N 33°49' E 134°52'410.6
2018-May-14 07:55N 33°46' E 134°49'811.1
2018-May-14 07:13N 33°40' E 134°44'81 2.4
2018-May-12 21:33N 33°45' E 136°21'112.0
2018-May-12 21:29N 33°46' E 136°21'2311.8
2018-May-12 19:31N 34°00' E 136°43'111.6
2018-May-12 19:26N 34°01' E 136°44'8811.4
2018-May-12 11:44N 34°25' E 138°26'511.9
2018-May-12 11:19N 34°26' E 138°32'511.8
2018-May-12 10:56N 34°27' E 138°37'511.7
2018-May-12 10:29N 34°28' E 138°43'711.5
2018-May-12 09:51N 34°30' E 138°52'410.9
2018-May-12 09:30N 34°32' E 138°56'610.3
2018-May-12 08:56N 34°35' E 139°01'410.4
2018-May-12 08:30N 34°39' E 139°05'610.3
2018-May-12 07:58N 34°44' E 139°09'510.3
2018-May-12 07:28N 34°47' E 139°13'5 9.8
2018-May-12 07:00N 34°51' E 139°16'5 9.9
2018-May-12 06:27N 34°55' E 139°21'510.5
2018-May-12 06:00N 34°57' E 139°26'510.3
2018-May-12 05:30N 35°00' E 139°31'510.5
2018-May-12 05:00N 35°03' E 139°36'611.5
2018-May-12 04:30N 35°07' E 139°42'611.5
2018-May-12 04:00N 35°11' E 139°46'510.7
2018-May-12 03:31N 35°17' E 139°45'611.3
2018-May-12 03:00N 35°22' E 139°42'510.8
2018-May-12 02:30N 35°27' E 139°46'611.6
2018-May-12 02:00N 35°30' E 139°52'611.8
2018-May-12 01:30N 35°33' E 139°58'611.2
2018-May-12 01:00N 35°39' E 139°59'1 2.8
2018-May-12 00:29N 35°40' E 140°00'0 0.0
2018-May-11 23:53N 35°40' E 140°00'0 0.0
2018-May-11 23:29N 35°40' E 140°00'0 0.0
2018-May-11 22:59N 35°40' E 140°00'0 0.0
2018-May-11 22:29N 35°40' E 140°00'0 0.0
2018-May-11 21:41N 35°40' E 140°00'0 0.0
2018-May-11 21:29N 35°40' E 140°00'0 0.0
2018-May-11 20:53N 35°40' E 140°00'0 0.0
2018-May-11 20:29N 35°40' E 140°00'0 0.0
2018-May-11 19:59N 35°40' E 140°00'0 0.0
2018-May-11 19:29N 35°40' E 140°00'0 0.0
2018-May-11 18:59N 35°40' E 140°00'0 0.0
2018-May-11 18:29N 35°40' E 140°00'0 0.0
2018-May-11 17:53N 35°40' E 140°00'0 0.0
2018-May-11 17:29N 35°40' E 140°00'0 0.0
2018-May-11 16:59N 35°40' E 140°00'0 0.0
2018-May-11 16:29N 35°40' E 140°00'0 0.0
2018-May-11 15:59N 35°40' E 140°00'0 0.0
2018-May-11 15:17N 35°40' E 140°00'0 0.0
2018-May-11 14:59N 35°40' E 140°00'0 0.0
2018-May-11 14:29N 35°40' E 140°00'0 0.0
2018-May-11 13:59N 35°40' E 140°00'0 0.0
2018-May-11 13:29N 35°40' E 140°00'0 0.0
2018-May-11 12:59N 35°40' E 140°00'0 0.0
2018-May-11 12:29N 35°40' E 140°00'0 0.0
2018-May-11 11:59N 35°40' E 140°00'0 0.0
2018-May-11 11:29N 35°40' E 140°00'0 0.0
2018-May-11 10:59N 35°40' E 140°00'  
Track history (hours):
 
Tides and Currents Weather Stations Pressure Air Temp Water Temp Dewpoint Dewpoint Depression Visibility Wind Speed Wind Dir Waves Ship Positions

Sumise Maru No.20

Last reported at 2018-May-21 10:36 UTC. Time now 2018-May-22 01:48 UTC.
Position N 34°57' E 139°24'.

Length 117 m; draft 5.8 m.

Type: Cargo ship. MMSI: 431100268.

Date/timePositionNaut miles runAvg speedWind from/ knotsBaromVisibWave heightAir tempDewpointWater temp
2018-May-21 10:36N 34°57' E 139°24'3 9.6
2018-May-21 10:16N 34°59' E 139°28'3 9.6
2018-May-21 09:59N 35°01' E 139°31'5 9.5
2018-May-21 09:30N 35°03' E 139°35'611.3
2018-May-21 09:00N 35°06' E 139°41'611.8
2018-May-21 08:30N 35°11' E 139°45'510.6
2018-May-21 08:00N 35°16' E 139°45'510.7
2018-May-21 07:30N 35°21' E 139°42'4 8.7
2018-May-21 07:00N 35°25' E 139°42'0 0.9
2018-May-21 06:30N 35°26' E 139°41'0 0.0
2018-May-21 06:00N 35°26' E 139°41'0 0.0
2018-May-21 05:30N 35°26' E 139°41'0 0.0
2018-May-21 05:00N 35°26' E 139°41'0 0.0
2018-May-21 04:27N 35°26' E 139°41'0 0.0
2018-May-21 04:00N 35°26' E 139°41'0 0.0
2018-May-21 03:30N 35°26' E 139°41'0 0.0
2018-May-21 03:00N 35°26' E 139°41'0 0.0
2018-May-21 02:27N 35°26' E 139°41'0 0.0
2018-May-21 02:00N 35°26' E 139°41'0 0.0
2018-May-21 01:30N 35°26' E 139°41'0 0.0
2018-May-21 01:00N 35°26' E 139°41'0 0.0
2018-May-21 00:30N 35°26' E 139°41'0 0.0
2018-May-21 00:00N 35°26' E 139°41'0 0.0
2018-May-20 23:27N 35°26' E 139°41'0 0.0
2018-May-20 23:00N 35°26' E 139°41'0 0.0
2018-May-20 22:30N 35°26' E 139°41'1 1.6
2018-May-20 22:00N 35°25' E 139°42'3 6.7
2018-May-20 21:31N 35°22' E 139°44'0 0.1
2018-May-20 20:56N 35°22' E 139°44'0 0.0
2018-May-20 20:29N 35°22' E 139°44'0 0.0
2018-May-20 19:56N 35°22' E 139°44'0 0.1
2018-May-20 19:29N 35°22' E 139°44'0 0.8
2018-May-20 19:00N 35°22' E 139°43'4 9.0
2018-May-20 18:30N 35°18' E 139°45'510.4
2018-May-20 18:00N 35°13' E 139°47'611.3
2018-May-20 17:30N 35°07' E 139°46'611.3
2018-May-20 17:00N 35°02' E 139°42'612.3
2018-May-20 16:30N 34°59' E 139°36'712.5
2018-May-20 15:59N 34°55' E 139°29'232 9.2
2018-May-19 14:55N 33°53' E 134°59'511.1
2018-May-19 14:30N 33°57' E 134°59'611.2
2018-May-19 14:00N 34°03' E 134°58'510.9
2018-May-19 13:30N 34°08' E 134°59'611.6
2018-May-19 13:00N 34°13' E 135°04'3 6.7
2018-May-19 12:30N 34°14' E 135°08'0 0.2
2018-May-19 12:00N 34°14' E 135°08'0 0.0
2018-May-19 11:30N 34°14' E 135°08'0 0.0
2018-May-19 11:00N 34°14' E 135°08'0 0.0
2018-May-19 10:30N 34°14' E 135°08'0 0.0
2018-May-19 10:00N 34°14' E 135°08'0 0.0
2018-May-19 09:30N 34°14' E 135°08'0 0.0
2018-May-19 09:00N 34°14' E 135°08'0 0.0
2018-May-19 08:30N 34°14' E 135°08'0 0.0
2018-May-19 08:00N 34°14' E 135°08'0 0.0
2018-May-19 07:30N 34°14' E 135°08'0 0.0
2018-May-19 07:00N 34°14' E 135°08'0 0.0
2018-May-19 06:30N 34°14' E 135°08'0 0.0
2018-May-19 06:00N 34°14' E 135°08'0 0.0
2018-May-19 05:30N 34°14' E 135°08'0 0.0
2018-May-19 05:00N 34°14' E 135°08'0 0.0
2018-May-19 04:30N 34°14' E 135°08'1 1.1
2018-May-19 04:00N 34°14' E 135°07'4 8.2
2018-May-19 03:30N 34°14' E 135°02'4 8.7
2018-May-19 03:00N 34°17' E 134°58'611.2
2018-May-19 02:30N 34°23' E 134°59'611.5
2018-May-19 02:00N 34°29' E 135°01'611.1
2018-May-19 01:30N 34°34' E 135°02'4 7.4
2018-May-19 00:58N 34°37' E 134°59'5 9.7
2018-May-19 00:30N 34°37' E 134°54'510.4
2018-May-19 00:00N 34°38' E 134°48'611.1
2018-May-18 23:30N 34°40' E 134°41'611.5
2018-May-18 22:59N 34°42' E 134°35'611.9
2018-May-18 22:30N 34°42' E 134°28'3 0.4
2018-May-18 14:33N 34°43' E 134°31'312.2
2018-May-18 14:18N 34°43' E 134°35'511.5
2018-May-18 13:52N 34°41' E 134°41'512.5
2018-May-18 13:27N 34°39' E 134°46'613.9
2018-May-18 13:00N 34°37' E 134°54'815.7
2018-May-18 12:30N 34°37' E 135°03'612.6
2018-May-18 12:00N 34°30' E 135°04'714.6
2018-May-18 11:30N 34°23' E 135°02'815.2
2018-May-18 11:00N 34°16' E 134°59'713.1
2018-May-18 10:30N 34°09' E 134°60'714.1
2018-May-18 10:01N 34°02' E 135°00'714.1
2018-May-18 09:30N 33°55' E 135°01'1013.1
2018-May-18 08:44N 33°47' E 135°07'22610.1
2018-May-17 10:18N 34°58' E 139°26'3 7.9
2018-May-17 09:56N 34°59' E 139°29'4 8.6
2018-May-17 09:30N 35°01' E 139°33'510.2
2018-May-17 08:59N 35°05' E 139°38'511.3
2018-May-17 08:30N 35°08' E 139°43'510.9
2018-May-17 08:00N 35°13' E 139°46'510.3
2018-May-17 07:30N 35°18' E 139°44'510.5
2018-May-17 07:00N 35°23' E 139°42'611.3
2018-May-17 06:30N 35°27' E 139°47'510.8
2018-May-17 06:00N 35°31' E 139°51'510.8
2018-May-17 05:30N 35°35' E 139°47'3 0.5
2018-May-16 23:16N 35°38' E 139°46'0 0.0
2018-May-16 22:58N 35°38' E 139°46'0 0.0
2018-May-16 22:28N 35°38' E 139°46'0 0.0
2018-May-16 21:52N 35°38' E 139°46'0 0.0
2018-May-16 21:28N 35°38' E 139°46'0 0.0
2018-May-16 20:58N 35°38' E 139°46'0 0.0
2018-May-16 20:28N 35°38' E 139°46'0 0.0
2018-May-16 19:58N 35°38' E 139°46'0 0.0
2018-May-16 19:28N 35°38' E 139°46'0 0.0
2018-May-16 18:46N 35°38' E 139°46'0 0.0
2018-May-16 18:22N 35°38' E 139°46'0 0.0
2018-May-16 17:58N 35°38' E 139°46'0 0.0
2018-May-16 17:28N 35°38' E 139°46'0 0.0
2018-May-16 16:52N 35°38' E 139°46'0 0.0
2018-May-16 16:28N 35°38' E 139°46'0 0.0
2018-May-16 15:58N 35°38' E 139°46'0 0.0
2018-May-16 15:22N 35°38' E 139°46'0 0.0
2018-May-16 14:58N 35°38' E 139°46'0 0.0
2018-May-16 14:04N 35°38' E 139°46'0 0.0
2018-May-16 13:58N 35°38' E 139°46'0 0.0
2018-May-16 13:28N 35°38' E 139°46'0 0.0
2018-May-16 12:58N 35°38' E 139°46'0 0.0
2018-May-16 12:22N 35°38' E 139°46'0 0.0
2018-May-16 11:58N 35°38' E 139°46'0 0.0
2018-May-16 11:28N 35°38' E 139°46'0 0.0
2018-May-16 10:40N 35°38' E 139°46'0 0.0
2018-May-16 10:10N 35°38' E 139°46'0 0.0
2018-May-16 09:58N 35°38' E 139°46'0 0.0
2018-May-16 09:21N 35°38' E 139°46'0 0.1
2018-May-16 08:40N 35°38' E 139°46'1 3.3
2018-May-16 08:16N 35°37' E 139°46'3 9.8
2018-May-16 08:00N 35°35' E 139°48'5 9.1
2018-May-16 07:28N 35°34' E 139°54'5 8.7
2018-May-16 06:53N 35°36' E 139°59'3 8.3
2018-May-16 06:28N 35°40' E 139°59'0 0.1
2018-May-15 22:04N 35°40' E 139°60'0 2.6
2018-May-15 22:00N 35°40' E 139°60'13 9.6
2018-May-15 20:41N 35°29' E 139°52'211.5
2018-May-15 20:30N 35°27' E 139°50'611.2
2018-May-15 20:00N 35°23' E 139°46'510.7
2018-May-15 19:30N 35°18' E 139°45'611.3
2018-May-15 19:00N 35°12' E 139°47'612.4
2018-May-15 18:30N 35°06' E 139°46'612.0
2018-May-15 18:00N 35°01' E 139°42'612.0
2018-May-15 17:30N 34°57' E 139°37'2 3.7
2018-May-15 17:00N 34°58' E 139°39'4 8.8
2018-May-15 16:30N 34°57' E 139°33'714.1
2018-May-15 15:59N 34°53' E 139°26'714.8
2018-May-15 15:30N 34°49' E 139°19'714.1
2018-May-15 14:59N 34°44' E 139°13'813.5
2018-May-15 14:25N 34°38' E 139°06'613.7
2018-May-15 13:58N 34°34' E 139°01'613.2
2018-May-15 13:30N 34°30' E 138°55'612.9
2018-May-15 13:00N 34°29' E 138°47'612.1
2018-May-15 12:30N 34°28' E 138°40'612.2
2018-May-15 12:00N 34°26' E 138°33'612.4
2018-May-15 11:30N 34°25' E 138°25'811.9
2018-May-15 10:50N 34°23' E 138°16'611.5
2018-May-15 10:21N 34°21' E 138°10'157 9.7
2018-May-14 18:05N 33°47' E 135°05'211.8
2018-May-14 17:55N 33°48' E 135°03'511.8
2018-May-14 17:30N 33°52' E 134°59'611.7
2018-May-14 17:01N 33°58' E 134°60'611.9
2018-May-14 16:31N 34°04' E 135°01'611.7
2018-May-14 16:00N 34°09' E 135°03'611.1
2018-May-14 15:30N 34°15' E 135°05'2 4.3
2018-May-14 15:00N 34°14' E 135°08'0 0.0
2018-May-14 14:28N 34°14' E 135°08'0 0.0
2018-May-14 13:58N 34°14' E 135°08'0 0.0
2018-May-14 13:28N 34°14' E 135°08'0 0.0
2018-May-14 12:58N 34°14' E 135°08'0 0.0
2018-May-14 12:30N 34°14' E 135°08'0 0.0
2018-May-14 11:55N 34°14' E 135°08'0 0.0
2018-May-14 11:31N 34°14' E 135°08'0 0.5
2018-May-14 11:01N 34°14' E 135°08'3 5.9
2018-May-14 10:30N 34°13' E 135°04'612.1
2018-May-14 10:01N 34°07' E 135°02'612.1
2018-May-14 09:31N 34°01' E 135°01'611.5
2018-May-14 09:00N 33°56' E 134°57'811.3
2018-May-14 08:16N 33°49' E 134°52'410.6
2018-May-14 07:55N 33°46' E 134°49'811.1
2018-May-14 07:13N 33°40' E 134°44'81 2.4
2018-May-12 21:33N 33°45' E 136°21'112.0
2018-May-12 21:29N 33°46' E 136°21'2311.8
2018-May-12 19:31N 34°00' E 136°43'111.6
2018-May-12 19:26N 34°01' E 136°44'8811.4
2018-May-12 11:44N 34°25' E 138°26'511.9
2018-May-12 11:19N 34°26' E 138°32'511.8
2018-May-12 10:56N 34°27' E 138°37'511.7
2018-May-12 10:29N 34°28' E 138°43'711.5
2018-May-12 09:51N 34°30' E 138°52'410.9
2018-May-12 09:30N 34°32' E 138°56'610.3
2018-May-12 08:56N 34°35' E 139°01'410.4
2018-May-12 08:30N 34°39' E 139°05'610.3
2018-May-12 07:58N 34°44' E 139°09'510.3
2018-May-12 07:28N 34°47' E 139°13'5 9.8
2018-May-12 07:00N 34°51' E 139°16'5 9.9
2018-May-12 06:27N 34°55' E 139°21'510.5
2018-May-12 06:00N 34°57' E 139°26'510.3
2018-May-12 05:30N 35°00' E 139°31'510.5
2018-May-12 05:00N 35°03' E 139°36'611.5
2018-May-12 04:30N 35°07' E 139°42'611.5
2018-May-12 04:00N 35°11' E 139°46'510.7
2018-May-12 03:31N 35°17' E 139°45'611.3
2018-May-12 03:00N 35°22' E 139°42'510.8
2018-May-12 02:30N 35°27' E 139°46'611.6
2018-May-12 02:00N 35°30' E 139°52'611.8
2018-May-12 01:30N 35°33' E 139°58'611.2
2018-May-12 01:00N 35°39' E 139°59'1 2.8
2018-May-12 00:29N 35°40' E 140°00'0 0.0
2018-May-11 23:53N 35°40' E 140°00'0 0.0
2018-May-11 23:29N 35°40' E 140°00'0 0.0
2018-May-11 22:59N 35°40' E 140°00'0 0.0
2018-May-11 22:29N 35°40' E 140°00'0 0.0
2018-May-11 21:41N 35°40' E 140°00'0 0.0
2018-May-11 21:29N 35°40' E 140°00'0 0.0
2018-May-11 20:53N 35°40' E 140°00'0 0.0
2018-May-11 20:29N 35°40' E 140°00'0 0.0
2018-May-11 19:59N 35°40' E 140°00'0 0.0
2018-May-11 19:29N 35°40' E 140°00'0 0.0
2018-May-11 18:59N 35°40' E 140°00'0 0.0
2018-May-11 18:29N 35°40' E 140°00'0 0.0
2018-May-11 17:53N 35°40' E 140°00'0 0.0
2018-May-11 17:29N 35°40' E 140°00'0 0.0
2018-May-11 16:59N 35°40' E 140°00'0 0.0
2018-May-11 16:29N 35°40' E 140°00'0 0.0
2018-May-11 15:59N 35°40' E 140°00'0 0.0
2018-May-11 15:17N 35°40' E 140°00'0 0.0
2018-May-11 14:59N 35°40' E 140°00'0 0.0
2018-May-11 14:29N 35°40' E 140°00'0 0.0
2018-May-11 13:59N 35°40' E 140°00'0 0.0
2018-May-11 13:29N 35°40' E 140°00'0 0.0
2018-May-11 12:59N 35°40' E 140°00'0 0.0
2018-May-11 12:29N 35°40' E 140°00'0 0.0
2018-May-11 11:59N 35°40' E 140°00'0 0.0
2018-May-11 11:29N 35°40' E 140°00'0 0.0
2018-May-11 10:59N 35°40' E 140°00'  

Dump ship's entire track history